createdAt,value
2023-04-18T00:00:04.238Z,0.60
2023-04-18T00:03:05.921Z,0.40
2023-04-18T00:06:07.612Z,0.50
2023-04-18T00:09:09.264Z,0.40
2023-04-18T00:12:11.464Z,0.43
2023-04-18T00:15:13.704Z,0.28
2023-04-18T00:18:18.037Z,0.30
2023-04-18T00:21:19.745Z,0.30
2023-04-18T00:24:21.467Z,0.30
2023-04-18T00:27:23.087Z,0.40
2023-04-18T00:30:24.737Z,0.40
2023-04-18T00:33:26.462Z,0.30
2023-04-18T00:36:28.043Z,0.38
2023-04-18T00:39:29.642Z,0.30
2023-04-18T00:42:31.933Z,0.40
2023-04-18T00:45:33.462Z,0.30
2023-04-18T00:48:35.212Z,0.30
2023-04-18T00:51:37.012Z,0.40
2023-04-18T00:54:39.810Z,0.40
2023-04-18T00:57:41.979Z,0.40
2023-04-18T01:00:43.850Z,0.60
2023-04-18T01:03:45.583Z,0.50
2023-04-18T01:06:47.244Z,0.57
2023-04-18T01:09:49.313Z,0.50
2023-04-18T01:12:50.891Z,0.55
2023-04-18T01:15:54.284Z,0.40
2023-04-18T01:18:56.619Z,0.40
2023-04-18T01:21:58.157Z,0.57
2023-04-18T01:24:59.786Z,0.60
2023-04-18T01:28:01.454Z,0.40
2023-04-18T01:31:03.076Z,0.50
2023-04-18T01:34:05.735Z,0.50
2023-04-18T01:37:07.342Z,0.60
2023-04-18T01:40:09.380Z,0.60
2023-04-18T01:43:10.960Z,0.60
2023-04-18T01:46:12.703Z,0.50
2023-04-18T01:49:14.314Z,0.40
2023-04-18T01:52:16.197Z,0.60
2023-04-18T01:55:17.819Z,0.40
2023-04-18T01:58:23.159Z,0.50
2023-04-18T02:01:24.864Z,0.68
2023-04-18T02:04:26.664Z,0.70
2023-04-18T02:07:28.254Z,0.45
2023-04-18T02:10:29.882Z,0.60
2023-04-18T02:13:31.462Z,0.60
2023-04-18T02:16:34.110Z,0.40
2023-04-18T02:19:35.810Z,0.60
2023-04-18T02:22:38.328Z,0.60
2023-04-18T02:25:40.054Z,0.50
2023-04-18T02:28:41.603Z,0.50
2023-04-18T02:31:43.242Z,0.60
2023-04-18T02:34:44.796Z,0.98
2023-04-18T02:37:46.502Z,0.80
2023-04-18T02:40:48.049Z,0.70
2023-04-18T02:43:49.729Z,0.60
2023-04-18T02:46:51.296Z,0.93
2023-04-18T02:49:52.907Z,0.70
2023-04-18T02:52:54.616Z,0.70
2023-04-18T02:55:56.147Z,0.90
2023-04-18T02:58:57.706Z,0.90
2023-04-18T03:01:59.305Z,0.50
2023-04-18T03:05:00.959Z,0.80
2023-04-18T03:08:02.508Z,0.70
2023-04-18T03:11:04.111Z,0.47
2023-04-18T03:14:05.724Z,0.47
2023-04-18T03:17:07.447Z,0.60
2023-04-18T03:20:10.440Z,0.70
2023-04-18T03:23:11.982Z,0.60
2023-04-18T03:26:13.859Z,0.57
2023-04-18T03:29:15.829Z,0.50
2023-04-18T03:32:18.390Z,0.52
2023-04-18T03:35:20.019Z,0.43
2023-04-18T03:38:21.607Z,0.40
2023-04-18T03:41:23.857Z,0.40
2023-04-18T03:44:25.446Z,0.40
2023-04-18T03:47:27.023Z,0.40
2023-04-18T03:50:28.638Z,0.32
2023-04-18T03:53:30.284Z,0.50
2023-04-18T03:56:31.833Z,0.45
2023-04-18T03:59:33.345Z,0.60
2023-04-18T04:02:35.036Z,0.60
2023-04-18T04:05:37.175Z,0.60
2023-04-18T04:08:38.798Z,0.50
2023-04-18T04:11:40.600Z,0.40
2023-04-18T04:14:42.202Z,0.50
2023-04-18T04:17:43.777Z,0.45
2023-04-18T04:20:46.590Z,0.50
2023-04-18T04:23:48.213Z,0.60
2023-04-18T04:26:50.834Z,0.85
2023-04-18T04:29:52.520Z,0.82
2023-04-18T04:32:56.377Z,0.90
2023-04-18T04:35:58.044Z,0.80
2023-04-18T04:38:59.646Z,0.50
2023-04-18T04:42:04.462Z,0.50
2023-04-18T04:45:08.216Z,1.00
2023-04-18T04:48:10.407Z,0.80
2023-04-18T04:51:12.007Z,0.77
2023-04-18T04:54:13.985Z,0.73
2023-04-18T04:57:15.903Z,0.80
2023-04-18T05:00:20.971Z,1.00
2023-04-18T05:03:22.818Z,1.20
2023-04-18T05:06:24.746Z,1.00
2023-04-18T05:09:26.354Z,0.90
2023-04-18T05:12:27.938Z,1.10
2023-04-18T05:15:29.784Z,1.33
2023-04-18T05:18:33.079Z,1.30
2023-04-18T05:21:36.459Z,1.42
2023-04-18T05:24:38.046Z,1.05
2023-04-18T05:27:39.973Z,1.02
2023-04-18T05:30:41.766Z,0.90
2023-04-18T05:33:43.355Z,1.00
2023-04-18T05:36:45.002Z,0.82
2023-04-18T05:39:46.621Z,0.70
2023-04-18T05:42:48.190Z,0.90
2023-04-18T05:45:52.217Z,0.90
2023-04-18T05:48:53.892Z,1.00
2023-04-18T05:51:56.551Z,1.20
2023-04-18T05:54:58.094Z,0.82
2023-04-18T05:57:59.811Z,0.85
2023-04-18T06:01:01.940Z,0.88
2023-04-18T06:04:03.914Z,0.75
2023-04-18T06:07:05.851Z,1.08
2023-04-18T06:10:11.107Z,1.40
2023-04-18T06:13:12.741Z,1.65
2023-04-18T06:16:14.582Z,1.40
2023-04-18T06:19:16.255Z,1.40
2023-04-18T06:22:17.933Z,1.00
2023-04-18T06:25:19.720Z,0.90
2023-04-18T06:28:21.335Z,1.50
2023-04-18T06:31:23.012Z,1.17
2023-04-18T06:34:24.625Z,1.05
2023-04-18T06:37:26.394Z,1.23
2023-04-18T06:40:28.293Z,1.33
2023-04-18T06:43:29.799Z,1.20
2023-04-18T06:46:32.514Z,1.35
2023-04-18T06:49:34.041Z,0.80
2023-04-18T06:52:40.465Z,1.30
2023-04-18T06:55:42.079Z,1.13
2023-04-18T06:58:43.690Z,1.10
2023-04-18T07:01:45.683Z,1.30
2023-04-18T07:04:47.370Z,1.02
2023-04-18T07:07:49.065Z,1.30
2023-04-18T07:10:50.608Z,1.00
2023-04-18T07:13:52.420Z,1.10
2023-04-18T07:16:54.083Z,1.10
2023-04-18T07:19:55.919Z,1.33
2023-04-18T07:22:57.469Z,1.10
2023-04-18T07:26:01.643Z,1.25
2023-04-18T07:29:03.397Z,1.58
2023-04-18T07:32:06.206Z,0.98
2023-04-18T07:35:10.072Z,1.23
2023-04-18T07:38:12.639Z,1.10
2023-04-18T07:41:14.251Z,1.52
2023-04-18T07:44:15.997Z,1.50
2023-04-18T07:47:22.392Z,2.25
2023-04-18T07:50:24.824Z,1.63
2023-04-18T07:53:26.746Z,1.77
2023-04-18T07:56:28.348Z,1.80
2023-04-18T07:59:30.048Z,2.22
2023-04-18T08:02:31.907Z,1.50
2023-04-18T08:05:33.686Z,1.30
2023-04-18T08:08:35.389Z,1.40
2023-04-18T08:11:37.051Z,1.10
2023-04-18T08:14:38.653Z,1.55
2023-04-18T08:17:42.732Z,1.90
2023-04-18T08:20:44.345Z,1.30
2023-04-18T08:23:46.573Z,1.67
2023-04-18T08:26:48.143Z,1.50
2023-04-18T08:29:49.791Z,1.65
2023-04-18T08:32:51.838Z,1.15
2023-04-18T08:35:53.503Z,1.20
2023-04-18T08:38:55.171Z,1.52
2023-04-18T08:42:00.666Z,1.50
2023-04-18T08:45:02.849Z,1.15
2023-04-18T08:48:04.890Z,1.20
2023-04-18T08:51:06.491Z,1.20
2023-04-18T08:54:09.526Z,0.90
2023-04-18T08:57:12.647Z,1.00
2023-04-18T09:00:14.690Z,0.90
2023-04-18T09:03:16.813Z,0.80
2023-04-18T09:06:19.086Z,1.00
2023-04-18T09:09:27.590Z,0.90
2023-04-18T09:12:29.682Z,0.77
2023-04-18T09:15:31.607Z,0.80
2023-04-18T09:18:33.350Z,0.40
2023-04-18T09:21:36.088Z,0.50
2023-04-18T09:24:37.648Z,0.40
2023-04-18T09:27:39.172Z,0.60
2023-04-18T09:30:42.303Z,0.50
2023-04-18T09:33:56.776Z,0.80
2023-04-18T09:37:08.219Z,0.90
2023-04-18T09:40:17.989Z,0.90
2023-04-18T09:43:20.808Z,0.90
2023-04-18T09:46:22.827Z,0.70
2023-04-18T09:49:24.472Z,0.60
2023-04-18T09:52:26.098Z,0.60
2023-04-18T09:55:29.496Z,0.55
2023-04-18T09:58:33.079Z,0.60
2023-04-18T10:01:35.861Z,0.60
2023-04-18T10:04:37.818Z,0.98
2023-04-18T10:07:40.407Z,0.70
2023-04-18T10:10:42.010Z,0.80
2023-04-18T10:13:47.778Z,1.10
2023-04-18T10:16:50.611Z,0.60
2023-04-18T10:20:09.930Z,0.80
2023-04-18T10:23:39.093Z,0.80
2023-04-18T10:26:47.294Z,0.68
2023-04-18T10:29:53.330Z,0.73
2023-04-18T10:32:55.546Z,0.70
2023-04-18T10:36:03.533Z,0.43
2023-04-18T10:39:22.797Z,0.52
2023-04-18T10:42:52.064Z,0.68
2023-04-18T10:46:23.896Z,0.90
2023-04-18T10:49:32.960Z,0.80
2023-04-18T10:52:34.907Z,1.20
2023-04-18T10:55:37.828Z,1.17
2023-04-18T10:58:42.032Z,1.60
2023-04-18T11:01:47.326Z,1.15
2023-04-18T11:05:04.746Z,1.27
2023-04-18T11:08:23.405Z,1.30
2023-04-18T11:11:25.080Z,1.00
2023-04-18T11:14:26.696Z,1.13
2023-04-18T11:17:32.756Z,0.90
2023-04-18T11:20:39.050Z,1.10
2023-04-18T11:23:41.264Z,0.90
2023-04-18T11:26:44.346Z,1.02
2023-04-18T11:29:52.797Z,1.23
2023-04-18T11:32:56.090Z,1.40
2023-04-18T11:36:00.691Z,1.27
2023-04-18T11:39:02.266Z,1.23
2023-04-18T11:42:04.056Z,1.20
2023-04-18T11:45:13.585Z,1.05
2023-04-18T11:48:15.176Z,1.30
2023-04-18T11:51:38.389Z,0.95
2023-04-18T11:54:44.649Z,1.00
2023-04-18T11:57:55.924Z,0.98
2023-04-18T12:00:57.646Z,1.10
2023-04-18T12:04:03.924Z,1.23
2023-04-18T12:07:05.876Z,1.38
2023-04-18T12:10:09.062Z,1.40
2023-04-18T12:13:11.967Z,1.00
2023-04-18T12:16:13.645Z,1.00
2023-04-18T12:19:15.475Z,1.30
2023-04-18T12:22:17.043Z,1.00
2023-04-18T12:25:27.138Z,1.20
2023-04-18T12:28:29.300Z,1.10
2023-04-18T12:31:30.997Z,1.15
2023-04-18T12:34:32.614Z,0.90
2023-04-18T12:37:34.242Z,1.35
2023-04-18T12:40:36.061Z,1.10
2023-04-18T12:43:37.582Z,1.20
2023-04-18T12:46:39.164Z,1.08
2023-04-18T12:49:40.868Z,1.02
2023-04-18T12:52:42.472Z,1.00
2023-04-18T12:55:44.120Z,0.80
2023-04-18T12:58:45.709Z,0.95
2023-04-18T13:01:47.350Z,0.70
2023-04-18T13:04:51.424Z,0.80
2023-04-18T13:07:58.585Z,0.75
2023-04-18T13:11:06.663Z,0.82
2023-04-18T13:14:08.193Z,0.60
2023-04-18T13:17:09.789Z,0.50
2023-04-18T13:20:12.608Z,0.60
2023-04-18T13:23:14.183Z,0.60
2023-04-18T13:26:15.818Z,0.52
2023-04-18T13:29:17.469Z,0.60
2023-04-18T13:32:19.042Z,0.60
2023-04-18T13:35:20.603Z,0.50
2023-04-18T13:38:22.172Z,0.70
2023-04-18T13:41:24.301Z,0.80
2023-04-18T13:44:26.000Z,0.60
2023-04-18T13:47:27.690Z,0.50
2023-04-18T13:50:29.329Z,0.60
2023-04-18T13:53:31.241Z,0.65
2023-04-18T13:56:32.986Z,0.60
2023-04-18T13:59:34.533Z,0.60
2023-04-18T14:02:36.153Z,0.80
2023-04-18T14:05:38.196Z,0.40
2023-04-18T14:08:41.128Z,0.50
2023-04-18T14:11:43.297Z,0.50
2023-04-18T14:14:44.816Z,0.90
2023-04-18T14:17:46.419Z,0.70
2023-04-18T14:20:48.633Z,0.80
2023-04-18T14:23:52.682Z,0.98
2023-04-18T14:26:54.803Z,0.70
2023-04-18T14:29:56.365Z,1.10
2023-04-18T14:32:57.917Z,0.80
2023-04-18T14:36:01.117Z,1.20
2023-04-18T14:39:03.462Z,0.70
2023-04-18T14:42:05.357Z,0.88
2023-04-18T14:45:08.648Z,1.13
2023-04-18T14:48:10.432Z,0.80
2023-04-18T14:51:12.365Z,0.90
2023-04-18T14:54:13.916Z,0.68
2023-04-18T14:57:15.533Z,0.80
2023-04-18T15:00:17.355Z,0.68
2023-04-18T15:03:18.977Z,0.60
2023-04-18T15:06:20.996Z,0.70
2023-04-18T15:09:22.746Z,0.77
2023-04-18T15:12:24.381Z,0.85
2023-04-18T15:15:26.001Z,0.70
2023-04-18T15:18:27.705Z,0.90
2023-04-18T15:21:29.274Z,1.17
2023-04-18T15:24:31.770Z,0.88
2023-04-18T15:27:33.366Z,0.77
2023-04-18T15:30:35.008Z,0.90
2023-04-18T15:33:36.551Z,0.90
2023-04-18T15:36:38.399Z,1.00
2023-04-18T15:39:40.064Z,0.90
2023-04-18T15:42:41.846Z,0.85
2023-04-18T15:45:44.624Z,0.80
2023-04-18T15:48:46.331Z,0.88
2023-04-18T15:51:47.989Z,0.60
2023-04-18T15:54:52.065Z,0.80
2023-04-18T15:57:53.808Z,0.90
2023-04-18T16:00:56.055Z,0.80
2023-04-18T16:03:57.763Z,0.90
2023-04-18T16:06:59.511Z,0.80
2023-04-18T16:10:03.037Z,0.80
2023-04-18T16:13:04.788Z,1.08
2023-04-18T16:16:07.007Z,0.90
2023-04-18T16:19:08.622Z,0.73
2023-04-18T16:22:12.704Z,0.80
2023-04-18T16:25:14.784Z,0.70
2023-04-18T16:28:16.396Z,0.95
2023-04-18T16:31:18.473Z,1.02
2023-04-18T16:34:20.161Z,0.70
2023-04-18T16:37:21.842Z,0.70
2023-04-18T16:40:23.582Z,0.80
2023-04-18T16:43:27.022Z,0.60
2023-04-18T16:46:31.366Z,0.55
2023-04-18T16:49:33.001Z,0.70
2023-04-18T16:52:34.586Z,0.60
2023-04-18T16:55:36.126Z,0.40
2023-04-18T16:58:37.674Z,0.40
2023-04-18T17:01:39.383Z,0.60
2023-04-18T17:04:41.065Z,0.40
2023-04-18T17:07:45.406Z,0.40
2023-04-18T17:10:46.957Z,0.30
2023-04-18T17:13:50.250Z,0.32
2023-04-18T17:16:53.492Z,0.40
2023-04-18T17:19:55.580Z,0.40
2023-04-18T17:22:57.442Z,0.60
2023-04-18T17:25:59.016Z,0.63
2023-04-18T17:29:01.346Z,0.70
2023-04-18T17:32:03.001Z,0.60
2023-04-18T17:35:06.473Z,0.45
2023-04-18T17:38:10.680Z,0.50
2023-04-18T17:41:12.593Z,0.50
2023-04-18T17:44:14.216Z,0.40
2023-04-18T17:47:15.827Z,0.40
2023-04-18T17:50:17.771Z,0.32
2023-04-18T17:53:19.645Z,0.30
2023-04-18T17:56:22.838Z,0.30
2023-04-18T17:59:24.697Z,0.60
2023-04-18T18:02:28.138Z,0.40
2023-04-18T18:05:30.449Z,0.40
2023-04-18T18:08:32.101Z,0.32
2023-04-18T18:11:33.683Z,0.30
2023-04-18T18:14:35.435Z,0.32
2023-04-18T18:17:37.152Z,0.40
2023-04-18T18:20:42.301Z,0.40
2023-04-18T18:23:44.025Z,0.30
2023-04-18T18:26:46.124Z,0.52
2023-04-18T18:29:50.332Z,0.20
2023-04-18T18:32:53.707Z,0.40
2023-04-18T18:35:58.437Z,0.35
2023-04-18T18:39:00.987Z,0.30
2023-04-18T18:42:03.626Z,0.43
2023-04-18T18:45:07.524Z,0.50
2023-04-18T18:48:10.775Z,0.40
2023-04-18T18:51:13.167Z,0.43
2023-04-18T18:54:15.085Z,0.63
2023-04-18T18:57:16.911Z,0.50
2023-04-18T19:00:19.702Z,0.30
2023-04-18T19:03:21.731Z,0.35
2023-04-18T19:06:23.632Z,0.47
2023-04-18T19:09:25.589Z,0.40
2023-04-18T19:12:28.759Z,0.30
2023-04-18T19:15:34.139Z,0.50
2023-04-18T19:18:37.172Z,0.50
2023-04-18T19:21:40.037Z,0.40
2023-04-18T19:24:41.743Z,0.30
2023-04-18T19:27:43.649Z,0.30
2023-04-18T19:30:46.974Z,0.50
2023-04-18T19:33:50.026Z,0.40
2023-04-18T19:36:51.795Z,0.43
2023-04-18T19:39:54.149Z,0.40
2023-04-18T19:42:56.394Z,0.50
2023-04-18T19:45:59.766Z,0.40
2023-04-18T19:49:02.933Z,0.50
2023-04-18T19:52:06.078Z,0.45
2023-04-18T19:55:09.109Z,0.50
2023-04-18T19:58:11.055Z,0.43
2023-04-18T20:01:17.648Z,0.40
2023-04-18T20:04:19.643Z,0.50
2023-04-18T20:07:25.536Z,0.40
2023-04-18T20:10:29.166Z,0.40
2023-04-18T20:13:31.385Z,0.40
2023-04-18T20:16:33.922Z,0.30
2023-04-18T20:19:37.221Z,0.40
2023-04-18T20:22:40.719Z,0.30
2023-04-18T20:25:43.935Z,0.45
2023-04-18T20:28:45.688Z,0.30
2023-04-18T20:31:47.424Z,0.30
2023-04-18T20:34:49.809Z,0.40
2023-04-18T20:37:53.029Z,0.30
2023-04-18T20:40:58.382Z,0.32
2023-04-18T20:44:05.843Z,0.30
2023-04-18T20:47:08.516Z,0.30
2023-04-18T20:50:12.046Z,0.30
2023-04-18T20:53:14.543Z,0.30
2023-04-18T20:56:16.739Z,0.25
2023-04-18T20:59:19.046Z,0.32
2023-04-18T21:02:20.817Z,0.20
2023-04-18T21:05:23.340Z,0.20
2023-04-18T21:08:25.589Z,0.20
2023-04-18T21:11:27.217Z,0.22
2023-04-18T21:14:28.754Z,0.28
2023-04-18T21:17:30.341Z,0.20
2023-04-18T21:20:31.940Z,0.20
2023-04-18T21:23:33.500Z,0.20
2023-04-18T21:26:35.279Z,0.20
2023-04-18T21:29:36.900Z,0.20
2023-04-18T21:32:38.442Z,0.20
2023-04-18T21:35:40.191Z,0.28
2023-04-18T21:38:41.790Z,0.25
2023-04-18T21:41:44.332Z,0.20
2023-04-18T21:44:45.899Z,0.20
2023-04-18T21:47:47.554Z,0.20
2023-04-18T21:50:54.847Z,0.20
2023-04-18T21:53:56.394Z,0.20
2023-04-18T21:56:58.315Z,0.20
2023-04-18T21:59:59.853Z,0.28
2023-04-18T22:03:01.559Z,0.20
2023-04-18T22:06:03.587Z,0.30
2023-04-18T22:09:06.140Z,0.20
2023-04-18T22:12:08.633Z,0.20
2023-04-18T22:15:10.547Z,0.20
2023-04-18T22:18:14.252Z,0.10
2023-04-18T22:21:16.211Z,0.20
2023-04-18T22:24:19.586Z,0.30
2023-04-18T22:27:21.183Z,0.30
2023-04-18T22:30:22.740Z,0.40
2023-04-18T22:33:24.648Z,0.30
2023-04-18T22:36:27.611Z,0.30
2023-04-18T22:39:31.125Z,0.22
2023-04-18T22:42:33.747Z,0.30
2023-04-18T22:45:35.550Z,0.30
2023-04-18T22:48:37.223Z,0.20
2023-04-18T22:51:38.786Z,0.22
2023-04-18T22:54:40.523Z,0.28
2023-04-18T22:57:42.328Z,0.30
2023-04-18T23:00:43.881Z,0.40
2023-04-18T23:03:45.554Z,0.30
2023-04-18T23:06:47.178Z,0.30
2023-04-18T23:09:48.740Z,0.25
2023-04-18T23:12:50.443Z,0.40
2023-04-18T23:15:52.062Z,0.45
2023-04-18T23:18:53.681Z,0.40
2023-04-18T23:21:55.527Z,0.40
2023-04-18T23:24:57.091Z,0.30
2023-04-18T23:27:58.645Z,0.40
2023-04-18T23:31:00.296Z,0.40
2023-04-18T23:34:01.872Z,0.40
2023-04-18T23:37:03.429Z,0.30
2023-04-18T23:40:06.818Z,0.30
2023-04-18T23:43:08.519Z,0.30
2023-04-18T23:46:10.407Z,0.50
2023-04-18T23:49:12.005Z,0.55
2023-04-18T23:52:13.804Z,0.50
2023-04-18T23:55:15.453Z,0.55
2023-04-18T23:58:17.100Z,0.65
